sensor_id;sensor_type;location;lat;lon;timestamp;pressure;altitude;pressure_sealevel;temperature;humidity
63019;BME280;49105;46.046;10.760;2022-08-21T00:01:19;95620.75;;;16.88;72.32
63019;BME280;49105;46.046;10.760;2022-08-21T00:03:46;95624.94;;;16.71;72.78
63019;BME280;49105;46.046;10.760;2022-08-21T00:06:11;95615.66;;;16.69;72.81
63019;BME280;49105;46.046;10.760;2022-08-21T00:08:37;95618.31;;;16.69;72.45
63019;BME280;49105;46.046;10.760;2022-08-21T00:11:03;95616.75;;;16.68;72.73
63019;BME280;49105;46.046;10.760;2022-08-21T00:13:29;95615.78;;;16.63;72.53
63019;BME280;49105;46.046;10.760;2022-08-21T00:15:54;95612.97;;;16.60;73.03
63019;BME280;49105;46.046;10.760;2022-08-21T00:18:20;95614.22;;;16.62;72.85
63019;BME280;49105;46.046;10.760;2022-08-21T00:20:46;95611.84;;;16.61;72.73
63019;BME280;49105;46.046;10.760;2022-08-21T00:23:13;95607.28;;;16.61;72.86
63019;BME280;49105;46.046;10.760;2022-08-21T00:25:41;95606.03;;;16.59;73.02
63019;BME280;49105;46.046;10.760;2022-08-21T00:28:07;95601.16;;;16.61;73.11
63019;BME280;49105;46.046;10.760;2022-08-21T00:30:33;95606.22;;;16.62;73.09
63019;BME280;49105;46.046;10.760;2022-08-21T00:33:00;95604.78;;;16.65;73.21
63019;BME280;49105;46.046;10.760;2022-08-21T00:35:34;95603.38;;;16.59;73.12
63019;BME280;49105;46.046;10.760;2022-08-21T00:38:00;95602.72;;;16.62;73.07
63019;BME280;49105;46.046;10.760;2022-08-21T00:43:10;95601.31;;;16.65;72.45
63019;BME280;49105;46.046;10.760;2022-08-21T00:45:36;95596.13;;;16.51;72.62
63019;BME280;49105;46.046;10.760;2022-08-21T00:48:02;95597.31;;;16.36;73.11
63019;BME280;49105;46.046;10.760;2022-08-21T00:50:31;95603.28;;;16.33;73.07
63019;BME280;49105;46.046;10.760;2022-08-21T00:52:58;95596.22;;;16.37;73.02
63019;BME280;49105;46.046;10.760;2022-08-21T00:55:25;95596.72;;;16.39;73.00
63019;BME280;49105;46.046;10.760;2022-08-21T00:57:54;95591.06;;;16.41;72.68
63019;BME280;49105;46.046;10.760;2022-08-21T01:00:25;95592.00;;;16.36;72.89
63019;BME280;49105;46.046;10.760;2022-08-21T01:02:53;95589.16;;;16.32;73.07
63019;BME280;49105;46.046;10.760;2022-08-21T01:05:19;95581.63;;;16.34;73.00
63019;BME280;49105;46.046;10.760;2022-08-21T01:07:44;95580.19;;;16.37;73.18
63019;BME280;49105;46.046;10.760;2022-08-21T01:10:10;95578.47;;;16.32;73.00
63019;BME280;49105;46.046;10.760;2022-08-21T01:12:36;95575.16;;;16.27;73.01
63019;BME280;49105;46.046;10.760;2022-08-21T01:15:04;95579.72;;;16.26;73.36
63019;BME280;49105;46.046;10.760;2022-08-21T01:17:30;95581.44;;;16.22;73.34
63019;BME280;49105;46.046;10.760;2022-08-21T01:20:01;95574.03;;;16.19;73.27
63019;BME280;49105;46.046;10.760;2022-08-21T01:22:29;95578.75;;;16.22;73.32
63019;BME280;49105;46.046;10.760;2022-08-21T01:24:54;95577.97;;;16.22;73.16
63019;BME280;49105;46.046;10.760;2022-08-21T01:27:20;95587.72;;;16.26;73.36
63019;BME280;49105;46.046;10.760;2022-08-21T01:29:59;95586.63;;;16.27;73.11
63019;BME280;49105;46.046;10.760;2022-08-21T01:32:27;95581.28;;;16.27;73.06
63019;BME280;49105;46.046;10.760;2022-08-21T01:34:53;95589.78;;;16.29;73.19
63019;BME280;49105;46.046;10.760;2022-08-21T01:37:20;95592.09;;;16.13;73.01
63019;BME280;49105;46.046;10.760;2022-08-21T01:39:46;95581.59;;;15.86;73.60
63019;BME280;49105;46.046;10.760;2022-08-21T01:42:12;95578.75;;;15.82;73.98
63019;BME280;49105;46.046;10.760;2022-08-21T01:44:37;95575.94;;;15.87;73.86
63019;BME280;49105;46.046;10.760;2022-08-21T01:47:06;95581.94;;;15.93;73.69
63019;BME280;49105;46.046;10.760;2022-08-21T01:49:33;95581.03;;;15.98;73.41
63019;BME280;49105;46.046;10.760;2022-08-21T01:51:59;95581.94;;;15.93;73.58
63019;BME280;49105;46.046;10.760;2022-08-21T01:54:25;95575.19;;;15.96;73.73
63019;BME280;49105;46.046;10.760;2022-08-21T01:56:52;95575.06;;;16.01;73.72
63019;BME280;49105;46.046;10.760;2022-08-21T01:59:19;95576.16;;;16.00;73.44
63019;BME280;49105;46.046;10.760;2022-08-21T02:01:45;95586.50;;;15.93;73.70
63019;BME280;49105;46.046;10.760;2022-08-21T02:04:11;95578.97;;;15.95;73.87
63019;BME280;49105;46.046;10.760;2022-08-21T02:06:37;95578.03;;;15.99;73.67
63019;BME280;49105;46.046;10.760;2022-08-21T02:09:04;95576.13;;;15.91;73.60
63019;BME280;49105;46.046;10.760;2022-08-21T02:11:31;95566.78;;;15.80;73.85
63019;BME280;49105;46.046;10.760;2022-08-21T02:13:56;95573.38;;;15.74;74.08
63019;BME280;49105;46.046;10.760;2022-08-21T02:16:22;95564.75;;;15.77;74.04
63019;BME280;49105;46.046;10.760;2022-08-21T02:18:47;95568.25;;;15.86;73.86
63019;BME280;49105;46.046;10.760;2022-08-21T02:21:13;95572.44;;;15.78;73.84
63019;BME280;49105;46.046;10.760;2022-08-21T02:23:39;95564.72;;;15.68;73.94
63019;BME280;49105;46.046;10.760;2022-08-21T02:26:06;95566.03;;;15.57;74.14
63019;BME280;49105;46.046;10.760;2022-08-21T02:28:33;95566.03;;;15.57;74.42
63019;BME280;49105;46.046;10.760;2022-08-21T02:30:59;95567.25;;;15.51;74.15
63019;BME280;49105;46.046;10.760;2022-08-21T02:33:25;95574.81;;;15.57;74.12
63019;BME280;49105;46.046;10.760;2022-08-21T02:35:51;95572.22;;;15.66;73.82
63019;BME280;49105;46.046;10.760;2022-08-21T02:38:22;95570.53;;;15.70;73.74
63019;BME280;49105;46.046;10.760;2022-08-21T02:40:49;95566.66;;;15.76;73.76
63019;BME280;49105;46.046;10.760;2022-08-21T02:43:16;95567.00;;;15.61;73.76
63019;BME280;49105;46.046;10.760;2022-08-21T02:45:43;95569.75;;;15.47;73.99
63019;BME280;49105;46.046;10.760;2022-08-21T02:48:13;95566.78;;;15.49;74.22
63019;BME280;49105;46.046;10.760;2022-08-21T02:50:42;95570.78;;;15.37;74.40
63019;BME280;49105;46.046;10.760;2022-08-21T02:53:09;95576.59;;;15.39;74.42
63019;BME280;49105;46.046;10.760;2022-08-21T02:55:37;95568.94;;;15.47;74.11
63019;BME280;49105;46.046;10.760;2022-08-21T02:58:06;95571.97;;;15.54;73.77
63019;BME280;49105;46.046;10.760;2022-08-21T03:00:34;95568.88;;;15.60;73.63
63019;BME280;49105;46.046;10.760;2022-08-21T03:03:00;95567.31;;;15.59;73.90
63019;BME280;49105;46.046;10.760;2022-08-21T03:05:27;95573.13;;;15.61;73.93
63019;BME280;49105;46.046;10.760;2022-08-21T03:07:54;95566.16;;;15.52;73.94
63019;BME280;49105;46.046;10.760;2022-08-21T03:10:20;95564.91;;;15.27;74.36
63019;BME280;49105;46.046;10.760;2022-08-21T03:12:46;95570.28;;;15.13;74.48
63019;BME280;49105;46.046;10.760;2022-08-21T03:15:14;95572.38;;;15.16;74.68
63019;BME280;49105;46.046;10.760;2022-08-21T03:17:40;95559.59;;;15.27;74.58
63019;BME280;49105;46.046;10.760;2022-08-21T03:20:07;95569.22;;;15.36;74.38
63019;BME280;49105;46.046;10.760;2022-08-21T03:22:33;95565.63;;;15.41;73.99
63019;BME280;49105;46.046;10.760;2022-08-21T03:24:59;95562.63;;;15.43;73.99
63019;BME280;49105;46.046;10.760;2022-08-21T03:27:26;95560.28;;;15.41;74.13
63019;BME280;49105;46.046;10.760;2022-08-21T03:29:52;95563.47;;;15.43;74.12
63019;BME280;49105;46.046;10.760;2022-08-21T03:32:18;95555.28;;;15.39;74.01
63019;BME280;49105;46.046;10.760;2022-08-21T03:34:45;95557.94;;;15.39;74.18
63019;BME280;49105;46.046;10.760;2022-08-21T03:37:11;95556.97;;;15.35;74.12
63019;BME280;49105;46.046;10.760;2022-08-21T03:39:36;95563.31;;;15.26;74.40
63019;BME280;49105;46.046;10.760;2022-08-21T03:42:02;95563.41;;;15.12;74.39
63019;BME280;49105;46.046;10.760;2022-08-21T03:44:28;95561.63;;;15.07;74.65
63019;BME280;49105;46.046;10.760;2022-08-21T03:46:54;95566.25;;;15.16;74.63
63019;BME280;49105;46.046;10.760;2022-08-21T03:49:20;95559.09;;;15.25;74.28
63019;BME280;49105;46.046;10.760;2022-08-21T03:51:46;95558.78;;;15.26;74.03
63019;BME280;49105;46.046;10.760;2022-08-21T03:54:11;95561.56;;;15.21;74.23
63019;BME280;49105;46.046;10.760;2022-08-21T03:56:36;95558.00;;;15.26;74.50
63019;BME280;49105;46.046;10.760;2022-08-21T03:59:02;95567.88;;;15.25;74.35
63019;BME280;49105;46.046;10.760;2022-08-21T04:01:29;95563.03;;;15.27;74.04
63019;BME280;49105;46.046;10.760;2022-08-21T04:03:54;95567.41;;;15.23;74.34
63019;BME280;49105;46.046;10.760;2022-08-21T04:06:20;95569.69;;;15.16;74.32
63019;BME280;49105;46.046;10.760;2022-08-21T04:08:45;95568.28;;;14.96;74.60
63019;BME280;49105;46.046;10.760;2022-08-21T04:11:11;95566.78;;;14.81;74.72
63019;BME280;49105;46.046;10.760;2022-08-21T04:13:37;95568.75;;;14.76;75.19
63019;BME280;49105;46.046;10.760;2022-08-21T04:16:04;95565.09;;;14.85;74.92
63019;BME280;49105;46.046;10.760;2022-08-21T04:18:29;95570.34;;;14.99;74.75
63019;BME280;49105;46.046;10.760;2022-08-21T04:20:57;95565.69;;;15.05;74.47
63019;BME280;49105;46.046;10.760;2022-08-21T04:23:23;95571.50;;;15.07;74.37
63019;BME280;49105;46.046;10.760;2022-08-21T04:25:49;95578.34;;;14.99;74.55
63019;BME280;49105;46.046;10.760;2022-08-21T04:28:15;95577.13;;;15.05;74.73
63019;BME280;49105;46.046;10.760;2022-08-21T04:30:40;95573.28;;;15.11;74.39
63019;BME280;49105;46.046;10.760;2022-08-21T04:33:06;95572.97;;;15.13;74.06
63019;BME280;49105;46.046;10.760;2022-08-21T04:35:32;95573.47;;;15.15;74.39
63019;BME280;49105;46.046;10.760;2022-08-21T04:37:57;95574.06;;;15.12;74.38
63019;BME280;49105;46.046;10.760;2022-08-21T04:40:25;95571.69;;;15.10;74.46
63019;BME280;49105;46.046;10.760;2022-08-21T04:42:54;95574.84;;;15.12;74.46
63019;BME280;49105;46.046;10.760;2022-08-21T04:45:25;95575.03;;;14.94;74.62
63019;BME280;49105;46.046;10.760;2022-08-21T04:47:52;95575.47;;;14.73;74.77
63019;BME280;49105;46.046;10.760;2022-08-21T04:50:22;95583.88;;;14.67;75.36
63019;BME280;49105;46.046;10.760;2022-08-21T04:52:49;95582.84;;;14.76;75.10
63019;BME280;49105;46.046;10.760;2022-08-21T04:55:16;95585.78;;;14.88;74.69
63019;BME280;49105;46.046;10.760;2022-08-21T04:57:43;95582.03;;;14.89;74.88
63019;BME280;49105;46.046;10.760;2022-08-21T05:00:09;95585.31;;;14.86;74.89
63019;BME280;49105;46.046;10.760;2022-08-21T05:02:36;95594.38;;;14.85;74.93
63019;BME280;49105;46.046;10.760;2022-08-21T05:05:03;95595.88;;;14.78;74.67
63019;BME280;49105;46.046;10.760;2022-08-21T05:07:29;95597.56;;;14.74;75.03
63019;BME280;49105;46.046;10.760;2022-08-21T05:09:56;95591.72;;;14.85;75.23
63019;BME280;49105;46.046;10.760;2022-08-21T05:12:22;95600.69;;;14.89;74.95
63019;BME280;49105;46.046;10.760;2022-08-21T05:14:48;95599.34;;;15.01;74.67
63019;BME280;49105;46.046;10.760;2022-08-21T05:17:14;95603.75;;;15.19;74.52
63019;BME280;49105;46.046;10.760;2022-08-21T05:19:39;95607.50;;;15.41;74.00
63019;BME280;49105;46.046;10.760;2022-08-21T05:22:05;95594.28;;;15.58;73.76
63019;BME280;49105;46.046;10.760;2022-08-21T05:24:31;95594.53;;;15.70;73.76
63019;BME280;49105;46.046;10.760;2022-08-21T05:26:57;95601.19;;;15.81;73.18
63019;BME280;49105;46.046;10.760;2022-08-21T05:29:22;95597.03;;;15.98;73.07
63019;BME280;49105;46.046;10.760;2022-08-21T05:31:48;95600.38;;;16.12;72.71
63019;BME280;49105;46.046;10.760;2022-08-21T05:34:18;95592.16;;;16.00;72.95
63019;BME280;49105;46.046;10.760;2022-08-21T05:36:43;95592.94;;;16.00;73.06
63019;BME280;49105;46.046;10.760;2022-08-21T05:39:09;95595.63;;;16.00;72.96
63019;BME280;49105;46.046;10.760;2022-08-21T05:41:35;95591.38;;;15.99;72.90
63019;BME280;49105;46.046;10.760;2022-08-21T05:44:00;95598.75;;;15.94;73.14
63019;BME280;49105;46.046;10.760;2022-08-21T05:46:26;95592.06;;;16.05;72.94
63019;BME280;49105;46.046;10.760;2022-08-21T05:48:51;95597.75;;;16.21;72.58
63019;BME280;49105;46.046;10.760;2022-08-21T05:51:17;95582.56;;;16.38;72.58
63019;BME280;49105;46.046;10.760;2022-08-21T05:53:43;95590.63;;;16.56;72.10
63019;BME280;49105;46.046;10.760;2022-08-21T05:56:10;95587.19;;;16.64;71.45
63019;BME280;49105;46.046;10.760;2022-08-21T05:58:36;95592.03;;;16.62;71.85
63019;BME280;49105;46.046;10.760;2022-08-21T06:01:02;95588.91;;;16.60;71.88
63019;BME280;49105;46.046;10.760;2022-08-21T06:03:34;95584.50;;;16.64;71.93
63019;BME280;49105;46.046;10.760;2022-08-21T06:06:00;95583.91;;;16.67;71.99
63019;BME280;49105;46.046;10.760;2022-08-21T06:08:26;95588.81;;;16.82;71.42
63019;BME280;49105;46.046;10.760;2022-08-21T06:10:54;95585.69;;;16.89;71.47
63019;BME280;49105;46.046;10.760;2022-08-21T06:13:21;95582.06;;;16.94;71.17
63019;BME280;49105;46.046;10.760;2022-08-21T06:15:47;95584.88;;;17.06;70.87
63019;BME280;49105;46.046;10.760;2022-08-21T06:18:12;95576.88;;;17.15;70.85
63019;BME280;49105;46.046;10.760;2022-08-21T06:20:38;95575.47;;;17.17;70.91
63019;BME280;49105;46.046;10.760;2022-08-21T06:23:03;95575.91;;;17.10;71.01
63019;BME280;49105;46.046;10.760;2022-08-21T06:25:29;95570.13;;;17.00;70.88
63019;BME280;49105;46.046;10.760;2022-08-21T06:28:06;95570.41;;;16.98;71.24
63019;BME280;49105;46.046;10.760;2022-08-21T06:30:32;95569.63;;;17.15;71.24
63019;BME280;49105;46.046;10.760;2022-08-21T06:32:58;95568.66;;;17.20;71.09
63019;BME280;49105;46.046;10.760;2022-08-21T06:35:24;95567.59;;;17.29;70.78
63019;BME280;49105;46.046;10.760;2022-08-21T06:37:50;95564.41;;;17.45;70.37
63019;BME280;49105;46.046;10.760;2022-08-21T06:40:16;95565.63;;;17.56;70.16
63019;BME280;49105;46.046;10.760;2022-08-21T06:42:41;95560.13;;;17.70;69.92
63019;BME280;49105;46.046;10.760;2022-08-21T06:45:07;95558.22;;;17.70;70.00
63019;BME280;49105;46.046;10.760;2022-08-21T06:47:33;95557.59;;;17.65;69.86
63019;BME280;49105;46.046;10.760;2022-08-21T06:49:58;95552.88;;;17.61;70.13
63019;BME280;49105;46.046;10.760;2022-08-21T06:52:24;95552.88;;;17.61;70.20
63019;BME280;49105;46.046;10.760;2022-08-21T06:54:49;95542.47;;;17.69;69.51
63019;BME280;49105;46.046;10.760;2022-08-21T06:57:15;95542.78;;;17.67;69.40
63019;BME280;49105;46.046;10.760;2022-08-21T06:59:40;95543.38;;;17.73;69.69
63019;BME280;49105;46.046;10.760;2022-08-21T07:02:06;95552.34;;;17.85;69.48
63019;BME280;49105;46.046;10.760;2022-08-21T07:04:32;95550.72;;;18.02;69.22
63019;BME280;49105;46.046;10.760;2022-08-21T07:06:57;95546.53;;;18.22;69.01
63019;BME280;49105;46.046;10.760;2022-08-21T07:09:23;95543.81;;;18.30;68.35
63019;BME280;49105;46.046;10.760;2022-08-21T07:11:51;95550.91;;;18.26;68.56
63019;BME280;49105;46.046;10.760;2022-08-21T07:14:17;95543.50;;;18.32;68.52
63019;BME280;49105;46.046;10.760;2022-08-21T07:16:42;95545.34;;;18.40;68.40
63019;BME280;49105;46.046;10.760;2022-08-21T07:19:08;95539.94;;;18.49;68.12
63019;BME280;49105;46.046;10.760;2022-08-21T07:21:33;95542.22;;;18.59;67.94
63019;BME280;49105;46.046;10.760;2022-08-21T07:23:59;95542.66;;;18.70;67.50
63019;BME280;49105;46.046;10.760;2022-08-21T07:26:25;95534.22;;;18.80;67.48
63019;BME280;49105;46.046;10.760;2022-08-21T07:28:51;95534.47;;;18.87;67.23
63019;BME280;49105;46.046;10.760;2022-08-21T07:31:18;95527.22;;;18.88;67.15
63019;BME280;49105;46.046;10.760;2022-08-21T07:33:45;95519.84;;;18.84;67.12
63019;BME280;49105;46.046;10.760;2022-08-21T07:36:11;95515.84;;;18.91;67.37
63019;BME280;49105;46.046;10.760;2022-08-21T07:38:36;95521.69;;;19.05;67.17
63019;BME280;49105;46.046;10.760;2022-08-21T07:41:04;95513.38;;;19.19;66.87
63019;BME280;49105;46.046;10.760;2022-08-21T07:43:31;95513.44;;;19.31;66.39
63019;BME280;49105;46.046;10.760;2022-08-21T07:45:56;95513.34;;;19.40;66.53
63019;BME280;49105;46.046;10.760;2022-08-21T07:48:22;95505.19;;;19.48;66.03
63019;BME280;49105;46.046;10.760;2022-08-21T07:50:49;95505.88;;;19.57;66.06
63019;BME280;49105;46.046;10.760;2022-08-21T07:53:15;95500.44;;;19.66;65.66
63019;BME280;49105;46.046;10.760;2022-08-21T07:55:41;95498.78;;;19.74;65.47
63019;BME280;49105;46.046;10.760;2022-08-21T07:58:06;95491.72;;;19.81;65.47
63019;BME280;49105;46.046;10.760;2022-08-21T08:00:32;95486.25;;;19.78;65.17
63019;BME280;49105;46.046;10.760;2022-08-21T08:02:59;95486.38;;;19.81;65.25
63019;BME280;49105;46.046;10.760;2022-08-21T08:05:29;95477.66;;;19.85;65.11
63019;BME280;49105;46.046;10.760;2022-08-21T08:07:55;95478.84;;;19.87;64.92
63019;BME280;49105;46.046;10.760;2022-08-21T08:10:21;95476.88;;;19.96;64.68
63019;BME280;49105;46.046;10.760;2022-08-21T08:12:47;95477.28;;;20.11;64.31
63019;BME280;49105;46.046;10.760;2022-08-21T08:15:19;95472.69;;;20.23;63.65
63019;BME280;49105;46.046;10.760;2022-08-21T08:17:46;95464.63;;;20.36;63.38
63019;BME280;49105;46.046;10.760;2022-08-21T08:20:13;95463.38;;;20.45;63.31
63019;BME280;49105;46.046;10.760;2022-08-21T08:22:39;95458.09;;;20.49;62.87
63019;BME280;49105;46.046;10.760;2022-08-21T08:25:07;95454.44;;;20.53;62.59
63019;BME280;49105;46.046;10.760;2022-08-21T08:27:33;95453.41;;;20.58;62.58
63019;BME280;49105;46.046;10.760;2022-08-21T08:29:59;95448.81;;;20.59;62.39
63019;BME280;49105;46.046;10.760;2022-08-21T08:32:24;95443.06;;;20.60;62.21
63019;BME280;49105;46.046;10.760;2022-08-21T08:34:50;95433.31;;;20.68;61.90
63019;BME280;49105;46.046;10.760;2022-08-21T08:37:18;95436.88;;;20.72;61.61
63019;BME280;49105;46.046;10.760;2022-08-21T08:39:44;95429.78;;;20.79;61.42
63019;BME280;49105;46.046;10.760;2022-08-21T08:42:27;95426.69;;;20.93;61.58
63019;BME280;49105;46.046;10.760;2022-08-21T08:45:20;95421.63;;;21.04;61.09
63019;BME280;49105;46.046;10.760;2022-08-21T08:47:51;95413.97;;;21.06;61.09
63019;BME280;49105;46.046;10.760;2022-08-21T08:52:57;95410.97;;;21.23;61.07
63019;BME280;49105;46.046;10.760;2022-08-21T08:55:39;95409.56;;;21.29;60.67
63019;BME280;49105;46.046;10.760;2022-08-21T08:58:06;95402.03;;;21.35;60.63
63019;BME280;49105;46.046;10.760;2022-08-21T09:00:32;95399.44;;;21.39;60.28
63019;BME280;49105;46.046;10.760;2022-08-21T09:03:00;95393.09;;;21.47;60.36
63019;BME280;49105;46.046;10.760;2022-08-21T09:11:08;95383.88;;;21.79;59.95
63019;BME280;49105;46.046;10.760;2022-08-21T09:16:25;95386.03;;;21.90;59.93
63019;BME280;49105;46.046;10.760;2022-08-21T09:19:13;95374.97;;;21.95;59.70
63019;BME280;49105;46.046;10.760;2022-08-21T09:22:03;95374.00;;;22.03;59.20
63019;BME280;49105;46.046;10.760;2022-08-21T09:27:22;95360.72;;;22.29;59.40
63019;BME280;49105;46.046;10.760;2022-08-21T09:29:50;95363.34;;;22.45;59.11
63019;BME280;49105;46.046;10.760;2022-08-21T09:32:20;95369.25;;;22.51;58.99
63019;BME280;49105;46.046;10.760;2022-08-21T09:35:00;95353.19;;;22.58;58.92
63019;BME280;49105;46.046;10.760;2022-08-21T09:37:28;95351.91;;;22.71;58.28
63019;BME280;49105;46.046;10.760;2022-08-21T09:39:55;95349.84;;;22.84;56.54
63019;BME280;49105;46.046;10.760;2022-08-21T09:42:26;95338.06;;;22.92;56.11
63019;BME280;49105;46.046;10.760;2022-08-21T09:45:17;95340.16;;;23.02;53.56
63019;BME280;49105;46.046;10.760;2022-08-21T09:47:43;95334.22;;;23.16;52.87
63019;BME280;49105;46.046;10.760;2022-08-21T09:50:17;95328.22;;;23.26;52.00
63019;BME280;49105;46.046;10.760;2022-08-21T09:53:01;95325.28;;;23.35;51.20
63019;BME280;49105;46.046;10.760;2022-08-21T09:55:38;95330.06;;;23.45;51.39
63019;BME280;49105;46.046;10.760;2022-08-21T09:58:32;95317.88;;;23.55;51.18
63019;BME280;49105;46.046;10.760;2022-08-21T10:00:59;95319.88;;;23.62;50.12
63019;BME280;49105;46.046;10.760;2022-08-21T10:03:25;95315.38;;;23.69;49.75
63019;BME280;49105;46.046;10.760;2022-08-21T10:05:57;95314.34;;;23.77;50.04
63019;BME280;49105;46.046;10.760;2022-08-21T10:08:25;95312.94;;;23.87;49.51
63019;BME280;49105;46.046;10.760;2022-08-21T10:10:55;95317.25;;;23.92;47.96
63019;BME280;49105;46.046;10.760;2022-08-21T10:24:16;95302.50;;;24.16;44.67
63019;BME280;49105;46.046;10.760;2022-08-21T10:26:55;95297.16;;;24.23;44.22
63019;BME280;49105;46.046;10.760;2022-08-21T10:57:00;95278.81;;;24.76;42.30
63019;BME280;49105;46.046;10.760;2022-08-21T10:59:53;95276.19;;;24.84;41.55
63019;BME280;49105;46.046;10.760;2022-08-21T11:02:25;95278.56;;;24.89;42.26
63019;BME280;49105;46.046;10.760;2022-08-21T11:04:57;95272.00;;;24.90;40.93
63019;BME280;49105;46.046;10.760;2022-08-21T11:09:55;95265.53;;;25.05;41.54
63019;BME280;49105;46.046;10.760;2022-08-21T11:12:46;95257.84;;;25.07;41.29
63019;BME280;49105;46.046;10.760;2022-08-21T11:18:21;95253.31;;;25.18;41.71
63019;BME280;49105;46.046;10.760;2022-08-21T11:21:15;95250.25;;;25.23;42.09
63019;BME280;49105;46.046;10.760;2022-08-21T11:23:50;95243.28;;;25.22;40.28
63019;BME280;49105;46.046;10.760;2022-08-21T11:26:35;95249.50;;;25.27;40.44
63019;BME280;49105;46.046;10.760;2022-08-21T11:29:28;95233.25;;;25.30;39.73
63019;BME280;49105;46.046;10.760;2022-08-21T11:34:42;95221.00;;;25.47;40.25
63019;BME280;49105;46.046;10.760;2022-08-21T11:51:00;95212.22;;;25.71;38.47
63019;BME280;49105;46.046;10.760;2022-08-21T11:53:34;95211.53;;;25.82;39.14
63019;BME280;49105;46.046;10.760;2022-08-21T11:56:07;95206.47;;;25.84;39.07
63019;BME280;49105;46.046;10.760;2022-08-21T11:58:45;95200.31;;;25.87;39.46
63019;BME280;49105;46.046;10.760;2022-08-21T12:01:19;95199.94;;;25.92;39.87
63019;BME280;49105;46.046;10.760;2022-08-21T12:03:58;95191.44;;;26.04;39.59
63019;BME280;49105;46.046;10.760;2022-08-21T12:08:59;95189.53;;;26.08;38.34
63019;BME280;49105;46.046;10.760;2022-08-21T12:11:25;95191.09;;;26.09;37.88
63019;BME280;49105;46.046;10.760;2022-08-21T12:16:32;95185.31;;;26.25;38.44
63019;BME280;49105;46.046;10.760;2022-08-21T12:19:08;95178.75;;;26.30;37.69
63019;BME280;49105;46.046;10.760;2022-08-21T12:21:48;95180.31;;;26.38;37.60
63019;BME280;49105;46.046;10.760;2022-08-21T12:26:54;95169.44;;;26.41;37.90
63019;BME280;49105;46.046;10.760;2022-08-21T12:29:32;95169.09;;;26.46;38.53
63019;BME280;49105;46.046;10.760;2022-08-21T12:32:19;95163.28;;;26.48;37.45
63019;BME280;49105;46.046;10.760;2022-08-21T12:35:07;95166.41;;;26.50;38.42
63019;BME280;49105;46.046;10.760;2022-08-21T12:37:41;95155.16;;;26.55;38.48
63019;BME280;49105;46.046;10.760;2022-08-21T12:40:21;95160.97;;;26.57;37.50
63019;BME280;49105;46.046;10.760;2022-08-21T12:42:50;95159.41;;;26.56;36.65
63019;BME280;49105;46.046;10.760;2022-08-21T12:48:18;95143.50;;;26.65;37.24
63019;BME280;49105;46.046;10.760;2022-08-21T12:50:50;95139.63;;;26.73;37.70
63019;BME280;49105;46.046;10.760;2022-08-21T12:55:57;95140.00;;;26.83;37.03
63019;BME280;49105;46.046;10.760;2022-08-21T12:58:27;95136.16;;;26.84;36.69
63019;BME280;49105;46.046;10.760;2022-08-21T13:00:56;95140.00;;;26.90;36.96
63019;BME280;49105;46.046;10.760;2022-08-21T13:03:24;95132.25;;;26.92;37.25
63019;BME280;49105;46.046;10.760;2022-08-21T13:05:50;95134.94;;;26.99;37.08
63019;BME280;49105;46.046;10.760;2022-08-21T13:08:20;95135.34;;;27.01;36.24
63019;BME280;49105;46.046;10.760;2022-08-21T13:10:47;95125.25;;;27.05;36.04
63019;BME280;49105;46.046;10.760;2022-08-21T13:13:25;95118.28;;;27.11;36.31
63019;BME280;49105;46.046;10.760;2022-08-21T13:15:57;95114.41;;;27.12;33.91
63019;BME280;49105;46.046;10.760;2022-08-21T13:18:27;95116.72;;;27.14;34.50
63019;BME280;49105;46.046;10.760;2022-08-21T13:21:06;95110.13;;;27.18;35.02
63019;BME280;49105;46.046;10.760;2022-08-21T13:23:32;95112.84;;;27.18;33.27
63019;BME280;49105;46.046;10.760;2022-08-21T13:25:57;95103.13;;;27.21;34.08
63019;BME280;49105;46.046;10.760;2022-08-21T13:28:23;95100.78;;;27.27;34.38
63019;BME280;49105;46.046;10.760;2022-08-21T13:30:58;95102.31;;;27.31;34.63
63019;BME280;49105;46.046;10.760;2022-08-21T13:33:25;95103.06;;;27.35;33.35
63019;BME280;49105;46.046;10.760;2022-08-21T13:36:03;95105.03;;;27.35;33.55
63019;BME280;49105;46.046;10.760;2022-08-21T13:38:32;95103.81;;;27.43;34.10
63019;BME280;49105;46.046;10.760;2022-08-21T13:41:03;95097.19;;;27.51;34.57
63019;BME280;49105;46.046;10.760;2022-08-21T13:43:34;95094.03;;;27.60;34.42
63019;BME280;49105;46.046;10.760;2022-08-21T13:46:02;95092.47;;;27.66;34.82
63019;BME280;49105;46.046;10.760;2022-08-21T13:48:33;95089.34;;;27.71;35.05
63019;BME280;49105;46.046;10.760;2022-08-21T13:51:00;95086.22;;;27.73;33.86
63019;BME280;49105;46.046;10.760;2022-08-21T13:53:35;95085.84;;;27.70;33.83
63019;BME280;49105;46.046;10.760;2022-08-21T13:56:02;95085.84;;;27.78;34.20
63019;BME280;49105;46.046;10.760;2022-08-21T13:58:42;95081.50;;;27.87;34.49
63019;BME280;49105;46.046;10.760;2022-08-21T14:03:47;95076.03;;;27.94;33.95
63019;BME280;49105;46.046;10.760;2022-08-21T14:06:20;95067.44;;;28.03;34.25
63019;BME280;49105;46.046;10.760;2022-08-21T14:08:50;95065.84;;;28.06;33.86
63019;BME280;49105;46.046;10.760;2022-08-21T14:11:16;95061.19;;;28.06;33.76
63019;BME280;49105;46.046;10.760;2022-08-21T14:13:49;95065.91;;;27.99;32.36
63019;BME280;49105;46.046;10.760;2022-08-21T14:16:19;95059.63;;;28.05;33.15
63019;BME280;49105;46.046;10.760;2022-08-21T14:18:51;95053.34;;;28.15;32.79
63019;BME280;49105;46.046;10.760;2022-08-21T14:21:34;95050.19;;;28.24;33.05
63019;BME280;49105;46.046;10.760;2022-08-21T14:24:10;95056.69;;;28.34;33.03
63019;BME280;49105;46.046;10.760;2022-08-21T14:26:44;95053.97;;;28.37;32.83
63019;BME280;49105;46.046;10.760;2022-08-21T14:29:11;95046.53;;;28.45;33.38
63019;BME280;49105;46.046;10.760;2022-08-21T14:31:38;95045.75;;;28.48;32.96